メインページ
METAR-TAF:

METAR-TAF

空港 :

Reading Regional Airport (Carl A. Spaatz Field)

レディング, ペンシルバニア州, アメリカ合衆国

緯度: 40-22-24N, 経度: 075-57-34W, 海抜: 105m

現時点の気象観測

当レポートは33分前の17:54(UTC)に作成
変向風 3kt
気温 29°C
湿度 52%
気圧 1021 hPa
視程: 16.1km
晴天

METAR: KRDG 261754Z VRB03KT 10SM CLR 29/18 A3016 RMK AO2 SLP216 T02890183 10289 20183 58014

時間: 14:27 (18:27 UTC)

予報

当レポートは1時間6分前の17:21(UTC)に作成
予報は26日の 18時(UTC)から 27日の 18時(UTC)まで有効
南/南西の風 5kt
視程: 10km
晴天
27日の 0200時(UTC)から
変向風 2kt
視程: 10km
晴天
27日の 0800時(UTC)から
の風 kt
視程: 1.6km
高度500ftの曇り
27日の 1500時(UTC)から
変向風 4kt
視程: 10km
高度1500ftの千切れ雲あり

TAF: KRDG 261721Z 2618/2718 20005KT P6SM SKC FM270200 VRB02KT P6SM SKC FM270800 00000KT 1SM BR OVC005 FM271500 VRB04KT P6SM BKN015

4,000以上の空港の気象観測と天気予報(METAR報とTAF報)

利用可能な観測所は地図上に黄色い丸と赤い丸で示す。

丸の上にカーソルを重ねると観測所名を参照できる。

次にクリックすると気象観測と天気予報を参照できる。

マップの切り替え:黒色「×」印の緑ボタンをクリックして拡大、「-」印の緑ボタンをクリックして縮小、緑色の三角印をクリックして隣りの地図に切り替え


METAR-TAF: